Home > Products > Valid Products > TAF

000
FTUS41 KBGM 241700
TAFITH
TAF
KITH 241726Z 2418/2518 31012KT P6SM FEW040
     FM242200 30005KT P6SM SKC
      TEMPO 2507/2511 BKN015
     FM251100 27004KT P6SM SCT015 BKN035
     FM251600 24008KT P6SM SCT035=



000
FTUS41 KBGM 241700
TAFSYR
TAF
KSYR 241726Z 2418/2518 31012KT P6SM SCT200
     FM242300 26005KT P6SM SKC
     FM250900 26004KT P6SM BKN040
     FM251500 24010KT P6SM BKN050=



000
FTUS41 KBGM 241700
TAFAVP
TAF
KAVP 241726Z 2418/2518 33010G18KT P6SM SKC
     FM242200 33007KT P6SM SKC
     FM251400 24007KT P6SM SCT040=



000
FTUS41 KBGM 241700
TAFELM
TAF
KELM 241726Z 2418/2518 32012KT P6SM SKC
     FM242200 30003KT P6SM SKC
      TEMPO 2508/2512 2SM BR BKN004
     FM251200 24003KT 3SM BR FEW002 BKN040
     FM251400 25007KT P6SM SCT040=



000
FTUS41 KBGM 241700
TAFBGM
TAF
KBGM 241726Z 2418/2518 32010G18KT P6SM SKC
     FM242200 30005KT P6SM SKC
     FM251300 25007KT P6SM BKN035=



000
FTUS41 KBGM 241300 AAA
TAFITH
TAF AMD
KITH 241318Z 2413/2512 32008KT P6SM FEW020 BKN070
      TEMPO 2413/2414 BKN015
     FM241700 31010KT P6SM FEW080
     FM242200 30005KT P6SM SKC
     FM250900 27004KT P6SM SCT030=



000
FTUS41 KBGM 241200 AAA
TAFELM
TAF AMD
KELM 241243Z 2413/2512 30006KT P6SM BKN040
     FM241400 32010KT P6SM SCT100
     FM242200 30005KT P6SM SKC
     FM251000 24003KT 3SM BR FEW002 SCT030=



000
FTUS41 KBGM 241100
TAFITH
TAF
KITH 241133Z 2412/2512 32008KT P6SM FEW020 BKN070
      TEMPO 2412/2414 BKN009
     FM241700 31010KT P6SM FEW080
     FM242200 30005KT P6SM SKC
     FM250900 27004KT P6SM SCT030=



000
FTUS41 KBGM 241100
TAFSYR
TAF
KSYR 241133Z 2412/2512 31010KT P6SM SCT015 BKN100
      TEMPO 2412/2414 BKN015
     FM242300 28006KT P6SM SKC
     FM250700 26004KT P6SM SCT040=



000
FTUS41 KBGM 241100
TAFAVP
TAF
KAVP 241133Z 2412/2512 33010KT P6SM SCT025 BKN040
      TEMPO 2412/2414 OVC025
     FM241700 33010G18KT P6SM FEW040 SCT100
     FM242200 33007KT P6SM SKC
     FM251000 VRB03KT P6SM SCT025=



000
FTUS41 KBGM 241100
TAFELM
TAF
KELM 241133Z 2412/2512 30006KT P6SM SCT001 BKN040
      TEMPO 2412/2413 BKN001
     FM241400 32010KT P6SM SCT100
     FM242200 30005KT P6SM SKC
     FM251000 24003KT 3SM BR FEW002 SCT030=



000
FTUS41 KBGM 241100
TAFBGM
TAF
KBGM 241133Z 2412/2512 33010G18KT P6SM FEW015 BKN060
      TEMPO 2412/2414 BKN015
     FM241700 32010G18KT P6SM SCT070
     FM242200 30009KT P6SM SKC
     FM250900 27004KT P6SM SCT020=



000
FTUS41 KBGM 241000 AAB
TAFSYR
TAF AMD
KSYR 241003Z 2410/2506 31008KT P6SM SCT020 BKN040
      TEMPO 2410/2412 -RA OVC020
     FM241200 31010KT P6SM SCT100
     FM242300 28006KT P6SM SKC=



000
FTUS41 KBGM 241000 AAB
TAFSYR
TAF AMD
KSYR 241003Z 2410/2506 31008KT P6SM SCT020 BKN040
      TEMPO 2410/2412 -RA OVC020
     FM241200 31010KT P6SM SCT100
     FM242300 28006KT P6SM SKC=



000
FTUS41 KBGM 241000 AAB
TAFELM
TAF AMD
KELM 241002Z 2410/2506 30006KT P6SM SCT040
      TEMPO 2410/2412 1SM BR FEW002
     FM241400 32010KT P6SM SCT100
     FM242200 31005KT P6SM SKC=



000
FTUS41 KBGM 241000 AAC
TAFITH
TAF AMD
KITH 241002Z 2410/2506 32008KT P6SM FEW020 BKN070
     FM241700 31010KT P6SM FEW080
     FM242200 30005KT P6SM SKC=



000
FTUS41 KBGM 241000 AAB
TAFELM
TAF AMD
KELM 241002Z 2410/2506 30006KT P6SM SCT040
      TEMPO 2410/2412 1SM BR FEW002
     FM241400 32010KT P6SM SCT100
     FM242200 31005KT P6SM SKC=



000
FTUS41 KBGM 241000 AAC
TAFITH
TAF AMD
KITH 241002Z 2410/2506 32008KT P6SM FEW020 BKN070
     FM241700 31010KT P6SM FEW080
     FM242200 30005KT P6SM SKC=



000
FTUS41 KBGM 240900 AAB
TAFITH
TAF AMD
KITH 240900Z 2409/2506 33009KT P6SM FEW008 OVC025
      TEMPO 2409/2411 OVC008
     FM241300 31008KT P6SM FEW015 BKN070
     FM241700 31010KT P6SM FEW080
     FM242200 30005KT P6SM SKC=



000
FTUS41 KBGM 240900 AAA
TAFELM
TAF AMD
KELM 240900Z 2409/2506 30006KT P6SM SCT025 BKN040
      TEMPO 2409/2411 BKN025
     FM241400 32010KT P6SM SCT100
     FM242200 31005KT P6SM SKC=



000
FTUS41 KBGM 240900 AAA
TAFAVP
TAF AMD
KAVP 240900Z 2409/2506 34008KT P6SM OVC025
     FM241400 33010KT P6SM SCT025 BKN040
     FM241700 33010G18KT P6SM FEW040 SCT100
     FM242200 33007KT P6SM SKC=



000
FTUS41 KBGM 240900 AAA
TAFBGM
TAF AMD
KBGM 240900Z 2409/2506 33010G18KT P6SM SCT015 BKN035
      TEMPO 2409/2413 OVC015
     FM241300 33010G18KT P6SM FEW015 BKN060
     FM241700 32010G18KT P6SM SCT070
     FM242200 31009KT P6SM SKC=



000
FTUS41 KBGM 240900 AAA
TAFSYR
TAF AMD
KSYR 240900Z 2409/2506 31008KT P6SM SCT020 BKN040
     FM241200 31010KT P6SM SCT100
     FM242300 28006KT P6SM SKC=



000
FTUS41 KBGM 240700 AAA
TAFITH
TAF AMD
KITH 240707Z 2407/2506 32009KT P6SM SCT015 OVC025
      TEMPO 2407/2409 OVC015
     FM241300 31008KT P6SM FEW015 BKN070
     FM241700 31010KT P6SM FEW080
     FM242200 30005KT P6SM SKC=



000
FTUS41 KBGM 240500
TAFBGM
TAF
KBGM 240535Z 2406/2506 33010G18KT P6SM SCT008 OVC012
      TEMPO 2406/2408 OVC008
     FM241300 33010G18KT P6SM FEW015 BKN060
     FM241700 32010G18KT P6SM SCT070
     FM242200 31009KT P6SM SKC=



000
FTUS41 KBGM 240500
TAFITH
TAF
KITH 240535Z 2406/2506 32009KT P6SM SCT007 OVC015
      TEMPO 2406/2410 OVC007
     FM241300 31008KT P6SM FEW015 BKN070
     FM241700 31010KT P6SM FEW080
     FM242200 30005KT P6SM SKC=



000
FTUS41 KBGM 240500
TAFSYR
TAF
KSYR 240535Z 2406/2506 31008KT P6SM SCT020 BKN040
      TEMPO 2406/2408 OVC020
     FM241200 31010KT P6SM SCT100
     FM242300 28006KT P6SM SKC=



000
FTUS41 KBGM 240500
TAFELM
TAF
KELM 240535Z 2406/2506 31006KT P6SM SCT018 OVC025
      TEMPO 2406/2408 OVC018
     FM240800 30006KT P6SM SCT025 BKN040
      TEMPO 2408/2412 BKN025
     FM241400 32010KT P6SM SCT100
     FM242200 31005KT P6SM SKC=



000
FTUS41 KBGM 240500
TAFAVP
TAF
KAVP 240535Z 2406/2506 34010KT P6SM OVC015
     FM241000 34008KT P6SM SCT015 OVC025
     FM241400 33010KT P6SM SCT025 BKN040
     FM241700 33010G18KT P6SM FEW040 SCT100
     FM242200 33007KT P6SM SKC=



000
FTUS41 KBGM 240200 AAA
TAFBGM
TAF AMD
KBGM 240243Z 2403/2424 34010KT P6SM SCT004 OVC008
      TEMPO 2403/2406 3SM -RA BR OVC004
     FM241000 33010KT P6SM SCT008 OVC015
     FM241300 32010KT P6SM SCT015 BKN035
     FM241700 32010KT P6SM SCT080=



000
FTUS41 KBGM 240200 AAA
TAFBGM
TAF AMD
KBGM 240243Z 2403/2424 34010KT P6SM SCT004 OVC008
      TEMPO 2403/2406 3SM -RA BR OVC004
     FM241000 33010KT P6SM SCT008 OVC015
     FM241300 32010KT P6SM SCT015 BKN035
     FM241700 32010KT P6SM SCT080=



000
FTUS41 KBGM 240100 AAA
TAFELM
TAF AMD
KELM 240155Z 2402/2424 35007KT P6SM SCT015 OVC025
      TEMPO 2402/2404 3SM -RA BR OVC015
     FM241000 29008KT P6SM SCT025 BKN040
     FM241500 32010KT P6SM SCT100=



000
FTUS41 KBGM 240100 AAA
TAFELM
TAF AMD
KELM 240155Z 2402/2424 35007KT P6SM SCT015 OVC025
      TEMPO 2402/2404 3SM -RA BR OVC015
     FM241000 29008KT P6SM SCT025 BKN040
     FM241500 32010KT P6SM SCT100=



000
FTUS41 KBGM 240100 AAA
TAFITH
TAF AMD
KITH 240123Z 2401/2424 32010KT P6SM SCT005 OVC015
      TEMPO 2401/2405 5SM -RA BR OVC005
     FM241200 32010KT P6SM SCT015 BKN035
     FM241600 32010KT P6SM SCT080=



000
FTUS41 KBGM 232300
TAFITH
TAF
KITH 232339Z 2400/2424 32010KT P6SM OVC015
     FM241200 32010KT P6SM SCT015 BKN035
     FM241600 32010KT P6SM SCT080=



000
FTUS41 KBGM 232300
TAFELM
TAF
KELM 232339Z 2400/2424 02008G15KT P6SM SCT025 OVC040
      TEMPO 2401/2403 OVC025
     FM240300 29008KT P6SM OVC025
     FM241000 29008KT P6SM SCT025 BKN040
     FM241500 32010KT P6SM SCT100=



000
FTUS41 KBGM 232300
TAFBGM
TAF
KBGM 232339Z 2400/2424 34010KT P6SM SCT008 OVC012
      TEMPO 2402/2406 BKN008
     FM241300 32010KT P6SM SCT015 BKN035
     FM241700 32010KT P6SM SCT080=



000
FTUS41 KBGM 232300
TAFSYR
TAF
KSYR 232339Z 2400/2424 34008KT P6SM OVC022
     FM241000 32010KT P6SM SCT025 BKN040
     FM241600 32010KT P6SM SCT100=



000
FTUS41 KBGM 232300
TAFAVP
TAF
KAVP 232339Z 2400/2424 34008KT P6SM OVC018
     FM241300 33010KT P6SM SCT025 BKN040
     FM241700 33010KT P6SM SCT100=



000
FTUS41 KBGM 231900 AAA
TAFELM
TAF AMD
KELM 231934Z 2320/2418 01012G20KT P6SM OVC025
      TEMPO 2320/2322 BKN015
     FM232200 31011KT P6SM BKN015 OVC060
     FM240200 30008KT P6SM OVC015
     FM241100 30009KT P6SM FEW015 SCT060=



000
FTUS41 KBGM 231900 AAA
TAFELM
TAF AMD
KELM 231934Z 2320/2418 01012G20KT P6SM OVC025
      TEMPO 2320/2322 BKN015
     FM232200 31011KT P6SM BKN015 OVC060
     FM240200 30008KT P6SM OVC015
     FM241100 30009KT P6SM FEW015 SCT060=



000
FTUS41 KBGM 231700
TAFSYR
TAF
KSYR 231731Z 2318/2418 32012G20KT P6SM SCT025 OVC035
      TEMPO 2320/2324 -RA BKN025
     FM240200 33008KT P6SM BKN025 BKN060
     FM241400 30011KT P6SM FEW025 SCT060=



000
FTUS41 KBGM 231700
TAFAVP
TAF
KAVP 231731Z 2318/2418 35011KT P6SM OVC015
      TEMPO 2318/2320 3SM -RA BR
     FM232000 35009KT P6SM -RA OVC015
     FM240100 33010KT P6SM BKN015 OVC060
     FM241700 33010KT P6SM FEW015 SCT060=



000
FTUS41 KBGM 231700
TAFELM
TAF
KELM 231731Z 2318/2418 35012G20KT P6SM BKN015
      TEMPO 2318/2322 BKN021
     FM232200 31011KT P6SM BKN015 OVC060
     FM240200 30008KT P6SM OVC015
     FM241100 30009KT P6SM FEW015 SCT060=



000
FTUS41 KBGM 231700
TAFBGM
TAF
KBGM 231731Z 2318/2418 34012G20KT P6SM OVC015
     FM231900 34012G20KT P6SM -SHRA OVC015
      TEMPO 2320/2324 5SM -RA BR BKN025 OVC060
     FM240100 33012KT P6SM OVC015
     FM241500 32011KT P6SM FEW015 SCT025=



000
FTUS41 KBGM 231700
TAFITH
TAF
KITH 231731Z 2318/2418 33014G22KT P6SM OVC015
     FM232300 33011KT P6SM BKN015 OVC060
     FM241200 31011KT P6SM FEW015 SCT060=



000
FTUS41 KBGM 231700 AAA
TAFAVP
TAF AMD
KAVP 231720Z 2317/2412 35011KT P6SM OVC013
      TEMPO 2317/2321 2SM -RA BR
     FM232300 33010KT P6SM OVC018=



000
FTUS41 KBGM 231700 AAB
TAFBGM
TAF AMD
KBGM 231703Z 2317/2412 35012G20KT P6SM OVC015
      TEMPO 2317/2321 -RA
     FM232300 33012KT P6SM OVC015=



000
FTUS41 KBGM 231700 AAB
TAFBGM
TAF AMD
KBGM 231703Z 2317/2412 35012G20KT P6SM OVC015
      TEMPO 2317/2321 -RA
     FM232300 33012KT P6SM OVC015=



000
FTUS41 KBGM 231600 AAB
TAFITH
TAF AMD
KITH 231652Z 2317/2412 35014G22KT P6SM OVC015
     FM232200 33012G18KT P6SM BKN035 OVC060
     FM240300 32008KT P6SM SCT040 BKN060=



000
FTUS41 KBGM 231600 AAB
TAFITH
TAF AMD
KITH 231652Z 2317/2412 35014G22KT P6SM OVC015
     FM232200 33012G18KT P6SM BKN035 OVC060
     FM240300 32008KT P6SM SCT040 BKN060=



000
FTUS41 KBGM 231600 AAB
TAFELM
TAF AMD
KELM 231626Z 2316/2412 35012G20KT P6SM BKN015
     FM231900 34010G18KT P6SM BKN035
     FM240200 30008KT P6SM SCT035 BKN060=



000
FTUS41 KBGM 231600 AAA
TAFAVP
TAF AMD
KAVP 231601Z 2316/2412 34011KT P6SM OVC013
     FM232300 33010KT P6SM OVC018=



000
FTUS41 KBGM 231600 AAA
TAFBGM
TAF AMD
KBGM 231601Z 2316/2412 34014G25KT P6SM OVC015
     FM231700 34012G20KT P6SM OVC020
      TEMPO 2317/2321 4SM -RA
     FM232300 33012KT P6SM OVC015=



000
FTUS41 KBGM 231500 AAA
TAFITH
TAF AMD
KITH 231559Z 2316/2412 33014G22KT P6SM OVC015
     FM232200 33012G18KT P6SM BKN035 OVC060
     FM240300 32008KT P6SM SCT040 BKN060=



000
FTUS41 KBGM 231500 AAA
TAFITH
TAF AMD
KITH 231559Z 2316/2412 33014G22KT P6SM OVC015
     FM232200 33012G18KT P6SM BKN035 OVC060
     FM240300 32008KT P6SM SCT040 BKN060=



000
FTUS41 KBGM 231500 AAC
TAFSYR
TAF AMD
KSYR 231512Z 2315/2412 32012G20KT P6SM OVC035
     FM240000 34008KT P6SM SCT035 BKN060=



000
FTUS41 KBGM 231400 AAB
TAFSYR
TAF AMD
KSYR 231406Z 2314/2412 32011KT P6SM OVC035
      TEMPO 2314/2318 BKN028
     FM240000 34008KT P6SM SCT035 BKN060=



000
FTUS41 KBGM 231400 AAA
TAFELM
TAF AMD
KELM 231403Z 2314/2412 35012G20KT P6SM BKN015
      TEMPO 2315/2319 BKN025
     FM231900 34010G18KT P6SM BKN035
     FM240200 30008KT P6SM SCT035 BKN060=



000
FTUS41 KBGM 231400 AAA
TAFSYR
TAF AMD
KSYR 231402Z 2314/2412 32011KT P6SM OVC025
      TEMPO 2320/2324 -SHRA
     FM240000 34008KT P6SM SCT035 BKN060=



000
FTUS41 KBGM 231200 AAA
TAFBGM
TAF AMD
KBGM 231253Z 2313/2412 34014KT P6SM OVC015
      TEMPO 2313/2317 BKN009
     FM231700 34012G20KT P6SM OVC020
      TEMPO 2317/2321 4SM -RA
     FM232300 33012KT P6SM OVC015=



000
FTUS41 KBGM 231100
TAFELM
TAF
KELM 231136Z 2312/2412 35012G20KT P6SM FEW020 BKN050
      TEMPO 2312/2314 OVC018
     FM231400 35012G20KT P6SM BKN025
     FM231900 34010G18KT P6SM BKN035
     FM240200 30008KT P6SM SCT035 BKN060=



000
FTUS41 KBGM 231100
TAFSYR
TAF
KSYR 231136Z 2312/2412 31008KT P6SM BKN030 OVC080
      TEMPO 2312/2314 BKN025
     FM231400 34012G18KT P6SM OVC025
      TEMPO 2320/2324 -SHRA
     FM240000 34008KT P6SM SCT035 BKN060=



000
FTUS41 KBGM 231100
TAFBGM
TAF
KBGM 231136Z 2312/2412 34014KT P6SM OVC015
     FM231700 34012G20KT P6SM OVC020
      TEMPO 2317/2321 4SM -RA
     FM232300 33012KT P6SM OVC015=



000
FTUS41 KBGM 231100
TAFAVP
TAF
KAVP 231136Z 2312/2412 35014KT P6SM OVC014
      TEMPO 2312/2316 -SHRA
     FM231600 34012G20KT P6SM OVC020
     FM232300 33010KT P6SM OVC018=



000
FTUS41 KBGM 231100
TAFITH
TAF
KITH 231136Z 2312/2412 33012KT P6SM SCT015 OVC025
      TEMPO 2312/2315 OVC015
     FM231500 33014G22KT P6SM OVC025
     FM232200 33012G18KT P6SM BKN035 OVC060
     FM240300 32008KT P6SM SCT040 BKN060=



000
FTUS41 KBGM 231000 AAC
TAFBGM
TAF AMD
KBGM 231053Z 2311/2406 34014KT P6SM OVC015
     FM231600 34012G20KT P6SM OVC025
      TEMPO 2316/2320 4SM -RA
     FM232300 33012KT P6SM OVC016=



000
FTUS41 KBGM 231000 AAC
TAFITH
TAF AMD
KITH 231053Z 2311/2406 33010KT P6SM SCT015 OVC035
      TEMPO 2311/2315 OVC015
     FM231500 33014G22KT P6SM OVC025
     FM232200 33012G18KT P6SM BKN035 OVC060=



000
FTUS41 KBGM 231000 AAB
TAFSYR
TAF AMD
KSYR 231001Z 2310/2406 31008KT P6SM FEW030 BKN070
      TEMPO 2310/2314 OVC030
     FM231400 34012G18KT P6SM OVC030
      TEMPO 2319/2323 5SM -SHRA
     FM240000 34008KT P6SM BKN035 OVC060=



000
FTUS41 KBGM 231000 AAB
TAFSYR
TAF AMD
KSYR 231001Z 2310/2406 31008KT P6SM FEW030 BKN070
      TEMPO 2310/2314 OVC030
     FM231400 34012G18KT P6SM OVC030
      TEMPO 2319/2323 5SM -SHRA
     FM240000 34008KT P6SM BKN035 OVC060=



000
FTUS41 KBGM 230900 AAB
TAFELM
TAF AMD
KELM 230946Z 2310/2406 35012G20KT P6SM FEW020 BKN050
      TEMPO 2310/2314 OVC020
     FM231400 35012G20KT P6SM BKN025
     FM232300 32010KT P6SM SCT035 BKN060=



000
FTUS41 KBGM 230900 AAB
TAFELM
TAF AMD
KELM 230946Z 2310/2406 35012G20KT P6SM FEW020 BKN050
      TEMPO 2310/2314 OVC020
     FM231400 35012G20KT P6SM BKN025
     FM232300 32010KT P6SM SCT035 BKN060=



000
FTUS41 KBGM 230900 AAA
TAFELM
TAF AMD
KELM 230900Z 2309/2406 35012G20KT P6SM FEW020 BKN050
      TEMPO 2311/2315 OVC020
     FM231500 35012G20KT P6SM BKN025
     FM232300 32010KT P6SM SCT035 BKN060=



000
FTUS41 KBGM 230900 AAA
TAFAVP
TAF AMD
KAVP 230900Z 2309/2406 35014KT P6SM OVC014
      TEMPO 2309/2312 4SM -RA
     FM231500 34012G20KT P6SM OVC020
     FM232100 34014KT P6SM OVC025=



000
FTUS41 KBGM 230900 AAA
TAFSYR
TAF AMD
KSYR 230900Z 2309/2406 31008KT P6SM FEW040 BKN070
     FM231400 34012G18KT P6SM OVC030
      TEMPO 2319/2323 5SM -SHRA
     FM240000 34008KT P6SM BKN035 OVC060=



000
FTUS41 KBGM 230900 AAB
TAFBGM
TAF AMD
KBGM 230900Z 2309/2406 34014KT P6SM OVC020
     FM231600 34012G20KT P6SM OVC025
      TEMPO 2316/2320 4SM -RA
     FM232300 33012KT P6SM OVC016=



000
FTUS41 KBGM 230900 AAB
TAFITH
TAF AMD
KITH 230900Z 2309/2406 34008KT P6SM SCT025 OVC035
      TEMPO 2311/2315 OVC025
     FM231500 33014G22KT P6SM OVC025
     FM232200 33012G18KT P6SM BKN035 OVC060=



000
FTUS41 KBGM 230800 AAA
TAFITH
TAF AMD
KITH 230822Z 2308/2406 34008KT P6SM SCT018 OVC035
      TEMPO 2310/2314 OVC018
     FM231400 33014G22KT P6SM OVC018
     FM232200 33012G18KT P6SM BKN025 OVC060=



000
FTUS41 KBGM 230800 AAA
TAFBGM
TAF AMD
KBGM 230821Z 2308/2406 34014KT P6SM FEW012 OVC020
      TEMPO 2309/2313 -RA OVC012
     FM231600 34012G20KT P6SM OVC012
      TEMPO 2316/2320 4SM -RA
     FM232300 33012KT P6SM OVC016=



000
FTUS41 KBGM 230800 AAA
TAFBGM
TAF AMD
KBGM 230821Z 2308/2406 34014KT P6SM FEW012 OVC020
      TEMPO 2309/2313 -RA OVC012
     FM231600 34012G20KT P6SM OVC012
      TEMPO 2316/2320 4SM -RA
     FM232300 33012KT P6SM OVC016=



000
FTUS41 KBGM 230600 AAA
TAFBGM
TAF AMD
KBGM 230628Z 2306/2406 34014KT P6SM FEW009 OVC018
      TEMPO 2308/2312 -RA OVC009
     FM231600 34012G20KT P6SM OVC012
      TEMPO 2316/2320 4SM -RA
     FM232300 33012KT P6SM OVC016=



000
FTUS41 KBGM 230500
TAFAVP
TAF
KAVP 230532Z 2306/2406 35014KT P6SM OVC015
      TEMPO 2306/2310 4SM -RA
     FM231500 34012G20KT P6SM OVC015
     FM232100 34014KT P6SM OVC020=



000
FTUS41 KBGM 230500
TAFSYR
TAF
KSYR 230532Z 2306/2406 31008KT P6SM FEW018 OVC070
      TEMPO 2310/2314 OVC018
     FM231400 34012G18KT P6SM OVC025
      TEMPO 2319/2323 5SM -SHRA
     FM240000 34008KT P6SM BKN035 OVC060=



000
FTUS41 KBGM 230500
TAFITH
TAF
KITH 230532Z 2306/2406 34008KT P6SM SCT012 OVC035
      TEMPO 2306/2310 OVC012
     FM231000 32012KT P6SM SCT008 OVC012
      TEMPO 2310/2314 OVC008
     FM231500 33014G22KT P6SM OVC015
     FM232200 33012G18KT P6SM BKN025 OVC060=



000
FTUS41 KBGM 230500
TAFELM
TAF
KELM 230532Z 2306/2406 35012G20KT P6SM OVC020
      TEMPO 2306/2310 OVC015
     FM232300 32010KT P6SM SCT035 BKN060=



000
FTUS41 KBGM 230500
TAFBGM
TAF
KBGM 230532Z 2306/2406 34014KT P6SM OVC008
     FM231600 34012G20KT P6SM OVC012
      TEMPO 2316/2320 4SM -RA
     FM232300 33012KT P6SM OVC016=



000
FTUS41 KBGM 230300 AAA
TAFSYR
TAF AMD
KSYR 230353Z 2304/2324 31008KT P6SM OVC070
     FM231000 34010KT P6SM OVC025
     FM231500 34012G18KT P6SM OVC025=



000
FTUS41 KBGM 230300 AAA
TAFSYR
TAF AMD
KSYR 230353Z 2304/2324 31008KT P6SM OVC070
     FM231000 34010KT P6SM OVC025
     FM231500 34012G18KT P6SM OVC025=



000
FTUS41 KBGM 222300 RRA
TAFELM
TAF
KELM 222341Z 2300/2324 34010KT P6SM OVC012
      TEMPO 2302/2306 5SM -SHRA BR
     FM231500 34012G18KT P6SM OVC015
     FM232100 34010KT P6SM OVC035=



000
FTUS41 KBGM 222300 RRA
TAFBGM
TAF
KBGM 222341Z 2300/2324 34012KT P6SM OVC008
      TEMPO 2300/2304 3SM -SHRA BR SCT008 OVC012
     FM231500 34012G20KT P6SM OVC012=



000
FTUS41 KBGM 222300 RRA
TAFITH
TAF
KITH 222341Z 2300/2324 35010KT P6SM OVC012
      TEMPO 2300/2304 3SM -SHRA BR
     FM230600 34008KT P6SM SCT008 OVC012
      TEMPO 2309/2313 OVC008
     FM231500 32012G18KT P6SM OVC015=



000
FTUS41 KBGM 222300 RRA
TAFSYR
TAF
KSYR 222341Z 2300/2324 34008KT P6SM OVC025
      TEMPO 2300/2304 5SM -SHRA BR
     FM231500 34012G18KT P6SM OVC025=



000
FTUS41 KBGM 222300 RRA
TAFAVP
TAF
KAVP 222341Z 2300/2324 35010KT P6SM OVC015
      TEMPO 2300/2304 5SM -SHRA BR
     FM231500 34012G18KT P6SM OVC015
     FM232100 34010KT P6SM OVC035=



000
FTUS41 KBGM 222200 AAA
TAFBGM
TAF AMD
KBGM 222213Z 2222/2318 34010KT 5SM -SHRA BR OVC008
     FM231600 33011KT 5SM -SHRA BR OVC012=



000
FTUS41 KBGM 222200 AAA
TAFBGM
TAF AMD
KBGM 222213Z 2222/2318 34010KT 5SM -SHRA BR OVC008
     FM231600 33011KT 5SM -SHRA BR OVC012=



000
FTUS41 KBGM 222200 AAB
TAFELM
TAF AMD
KELM 222211Z 2222/2318 34010G20KT P6SM OVC012
     FM230000 34010KT P6SM SCT007 OVC015
     FM230900 32012KT P6SM OVC015=



000
FTUS41 KBGM 222200 AAB
TAFELM
TAF AMD
KELM 222211Z 2222/2318 34010G20KT P6SM OVC012
     FM230000 34010KT P6SM SCT007 OVC015
     FM230900 32012KT P6SM OVC015=



000
FTUS41 KBGM 222200 AAB
TAFITH
TAF AMD
KITH 222210Z 2222/2318 35010KT P6SM -DZ OVC012
     FM230500 35009KT 5SM -SHRA BR OVC006
      TEMPO 2314/2318 OVC015=



000
FTUS41 KBGM 221900 AAA
TAFITH
TAF AMD
KITH 221904Z 2219/2318 35010KT P6SM OVC009
     FM222300 35012KT 5SM BR OVC006
      TEMPO 2302/2305 5SM -SHRA
     FM230500 35009KT 5SM -SHRA BR OVC006
      TEMPO 2314/2318 OVC015=



000
FTUS41 KBGM 221900 AAA
TAFSYR
TAF AMD
KSYR 221903Z 2219/2318 33010KT P6SM OVC035
     FM222200 36010KT P6SM SCT025 OVC035
      TEMPO 2302/2305 5SM -SHRA
     FM230500 34008KT 5SM -SHRA SCT025 OVC035
     FM231200 36011KT 5SM -SHRA BR OVC025=



000
FTUS41 KBGM 221900 AAA
TAFELM
TAF AMD
KELM 221901Z 2219/2318 01012G20KT P6SM OVC008
      TEMPO 2219/2223 OVC015
     FM230200 34010KT P6SM SCT007 OVC015
     FM230900 32012KT P6SM OVC015=



000
FTUS41 KBGM 221800 AAA
TAFBGM
TAF AMD
KBGM 221851Z 2219/2318 36012KT P6SM OVC011
      TEMPO 2219/2223 OVC009
     FM230500 34011KT 5SM -SHRA BR BKN009 OVC012
     FM231600 33011KT 5SM -SHRA BR OVC012=



000
FTUS41 KBGM 221700
TAFAVP
TAF
KAVP 221739Z 2218/2318 02011KT P6SM OVC018
     FM230000 36011G18KT P6SM OVC015
     FM230500 34011KT 5SM -SHRA BR OVC015
      TEMPO 2305/2309 OVC025=



000
FTUS41 KBGM 221700
TAFELM
TAF
KELM 221739Z 2218/2318 01010KT P6SM OVC009
      TEMPO 2222/2302 OVC015
     FM230200 34010KT P6SM SCT007 OVC015
     FM230900 32012KT P6SM OVC015=



000
FTUS41 KBGM 221700
TAFSYR
TAF
KSYR 221739Z 2218/2318 34010KT P6SM OVC035
      TEMPO 2218/2222 BKN025
     FM222200 36010KT P6SM SCT025 OVC035
      TEMPO 2302/2305 5SM -SHRA
     FM230500 34008KT 5SM -SHRA SCT025 OVC035
     FM231200 36011KT 5SM -SHRA BR OVC025=



000
FTUS41 KBGM 221700
TAFITH
TAF
KITH 221739Z 2218/2318 35010KT P6SM OVC009
      TEMPO 2218/2222 SCT009 OVC015
     FM222300 35012KT 5SM BR OVC006
      TEMPO 2302/2305 5SM -SHRA
     FM230500 35009KT 5SM -SHRA BR OVC006
      TEMPO 2314/2318 OVC015=



000
FTUS41 KBGM 221700
TAFBGM
TAF
KBGM 221739Z 2218/2318 36011KT P6SM OVC011
     FM230500 34011KT 5SM -SHRA BR BKN009 OVC012
     FM231600 33011KT 5SM -SHRA BR OVC012=



000
FTUS41 KBGM 221700
TAFSYR
TAF
KSYR 221739Z 2218/2318 34010KT P6SM OVC035
      TEMPO 2218/2222 BKN025
     FM222200 36010KT P6SM SCT025 OVC035
      TEMPO 2302/2305 5SM -SHRA
     FM230500 34008KT 5SM -SHRA SCT025 OVC035
     FM231200 36011KT 5SM -SHRA BR OVC025=



000
FTUS41 KBGM 221700
TAFITH
TAF
KITH 221739Z 2218/2318 35010KT P6SM OVC009
      TEMPO 2218/2222 SCT009 OVC015
     FM222300 35012KT 5SM BR OVC006
      TEMPO 2302/2305 5SM -SHRA
     FM230500 35009KT 5SM -SHRA BR OVC006
      TEMPO 2314/2318 OVC015=



000
FTUS41 KBGM 221700
TAFELM
TAF
KELM 221739Z 2218/2318 01010KT P6SM OVC009
      TEMPO 2222/2302 OVC015
     FM230200 34010KT P6SM SCT007 OVC015
     FM230900 32012KT P6SM OVC015=



000
FTUS41 KBGM 221700
TAFAVP
TAF
KAVP 221739Z 2218/2318 02011KT P6SM OVC018
     FM230000 36011G18KT P6SM OVC015
     FM230500 34011KT 5SM -SHRA BR OVC015
      TEMPO 2305/2309 OVC025=



000
FTUS41 KBGM 221700
TAFBGM
TAF
KBGM 221739Z 2218/2318 36011KT P6SM OVC011
     FM230500 34011KT 5SM -SHRA BR BKN009 OVC012
     FM231600 33011KT 5SM -SHRA BR OVC012=



000
FTUS41 KBGM 221600 AAC
TAFSYR
TAF AMD
KSYR 221617Z 2216/2312 34010KT P6SM SCT015 OVC035
      TEMPO 2216/2220 BKN018
     FM222300 35010KT 5SM -SHRA SCT015 OVC025=



000
FTUS41 KBGM 221500 AAB
TAFBGM
TAF AMD
KBGM 221539Z 2216/2312 36011KT P6SM SCT006 OVC015
     FM230000 34012G20KT 5SM -SHRA BR BKN006 OVC012=



000
FTUS41 KBGM 221500 AAB
TAFBGM
TAF AMD
KBGM 221539Z 2216/2312 36011KT P6SM SCT006 OVC015
     FM230000 34012G20KT 5SM -SHRA BR BKN006 OVC012=



000
FTUS41 KBGM 221500 CCA
TAFITH
TAF COR
KITH 221538Z 2216/2312 35010KT P6SM OVC004
      TEMPO 2216/2220 SCT007 OVC015
     FM230100 35012KT 4SM -SHRA BR OVC006=



000
FTUS41 KBGM 221500 CCA
TAFITH
TAF COR
KITH 221538Z 2216/2312 35010KT P6SM OVC004
      TEMPO 2216/2220 SCT007 OVC015
     FM230100 35012KT 4SM -SHRA BR OVC006=



000
FTUS41 KBGM 221500 AAA
TAFELM
TAF AMD
KELM 221536Z 2216/2312 03010G16KT P6SM OVC008
      TEMPO 2216/2218 SCT006 OVC012
     FM221800 01010KT P6SM SCT007 OVC015
     FM230200 34010KT 5SM -SHRA BR SCT007 OVC015=



000
FTUS41 KBGM 221500 AAA
TAFELM
TAF AMD
KELM 221536Z 2216/2312 03010G16KT P6SM OVC008
      TEMPO 2216/2218 SCT006 OVC012
     FM221800 01010KT P6SM SCT007 OVC015
     FM230200 34010KT 5SM -SHRA BR SCT007 OVC015=



000
FTUS41 KBGM 221500 AAA
TAFITH
TAF AMD
KITH 221533Z 2216/2312 35010KT P6SM SCT007 OVC015
     FM230100 35012KT 4SM -SHRA BR OVC006=



000
FTUS41 KBGM 221500 AAA
TAFITH
TAF AMD
KITH 221533Z 2216/2312 35010KT P6SM SCT007 OVC015
     FM230100 35012KT 4SM -SHRA BR OVC006=



000
FTUS41 KBGM 221500 AAB
TAFSYR
TAF AMD
KSYR 221533Z 2216/2312 34010KT P6SM SCT015 OVC035
      TEMPO 2216/2220 BKN025
     FM222300 35010KT 5SM -SHRA SCT015 OVC025=



000
FTUS41 KBGM 221500 AAB
TAFSYR
TAF AMD
KSYR 221533Z 2216/2312 34010KT P6SM SCT015 OVC035
      TEMPO 2216/2220 BKN025
     FM222300 35010KT 5SM -SHRA SCT015 OVC025=



000
FTUS41 KBGM 221400 AAA
TAFBGM
TAF AMD
KBGM 221404Z 2214/2312 03011KT P6SM OVC009
      TEMPO 2214/2216 SCT009 OVC014
     FM221600 36012KT P6SM SCT006 OVC015
     FM230000 34012G20KT 5SM -SHRA BR BKN006 OVC012=



000
FTUS41 KBGM 221300 AAA
TAFAVP
TAF AMD
KAVP 221307Z 2213/2312 02007KT P6SM SCT015 OVC025
      TEMPO 2213/2216 OVC018
     FM221600 36012KT P6SM SCT015 OVC025
     FM230000 36012G18KT 5SM -SHRA BKN015 OVC025=



000
FTUS41 KBGM 221200 AAA
TAFSYR
TAF AMD
KSYR 221227Z 2212/2312 36012KT P6SM SCT025 OVC035
      TEMPO 2212/2216 OVC025
     FM221600 35010KT P6SM SCT015 OVC025
     FM222300 35010KT 5SM -SHRA SCT015 OVC025=



000
FTUS41 KBGM 221200 AAA
TAFBGM
TAF AMD
KBGM 221208Z 2212/2312 02007KT P6SM OVC005
      TEMPO 2214/2216 5SM -SHRA BR SCT006 OVC012
     FM221600 36012KT P6SM SCT006 OVC015
     FM230000 34012G20KT 5SM -SHRA BR BKN006 OVC012=



000
FTUS41 KBGM 221100
TAFSYR
TAF
KSYR 221136Z 2212/2312 36012KT P6SM SCT015 OVC035
      TEMPO 2212/2216 OVC015
     FM221600 35010KT P6SM SCT015 OVC025
     FM222300 35010KT 5SM -SHRA SCT015 OVC025=



000
FTUS41 KBGM 221100
TAFBGM
TAF
KBGM 221136Z 2212/2312 02007KT P6SM OVC006
      TEMPO 2214/2216 5SM -SHRA BR SCT006 OVC012
     FM221600 36012KT P6SM SCT006 OVC015
     FM230000 34012G20KT 5SM -SHRA BR BKN006 OVC012=



000
FTUS41 KBGM 221100
TAFELM
TAF
KELM 221136Z 2212/2312 02010G16KT P6SM OVC006
      TEMPO 2214/2217 SCT006 OVC012
     FM221700 01010KT P6SM SCT007 OVC015
     FM230200 34010KT 5SM -SHRA BR SCT007 OVC015=



000
FTUS41 KBGM 221100
TAFAVP
TAF
KAVP 221136Z 2212/2312 02007KT P6SM SCT015 OVC025
      TEMPO 2212/2216 5SM -SHRA BR OVC015
     FM221600 36012KT P6SM SCT015 OVC025
     FM230000 36012G18KT 5SM -SHRA BKN015 OVC025=



000
FTUS41 KBGM 221100
TAFITH
TAF
KITH 221136Z 2212/2312 36008KT 6SM BR OVC004
      TEMPO 2214/2216 3SM BR SCT004 OVC012
     FM221600 35010KT P6SM SCT007 OVC015
     FM230100 35012KT 4SM -SHRA BR OVC006=



000
FTUS41 KBGM 221000 AAB
TAFITH
TAF AMD
KITH 221029Z 2210/2306 35008KT 4SM BR OVC004
      TEMPO 2212/2214 6SM BR SCT004 OVC012
     FM221400 33010KT 6SM BR SCT007 OVC015
     FM230000 33010KT 4SM -SHRA BR OVC006=



000
FTUS41 KBGM 220800 AAA
TAFITH
TAF AMD
KITH 220823Z 2208/2306 35005KT 3SM BR OVC002
      TEMPO 2212/2214 5SM BR SCT002 OVC012
     FM221400 33010KT 6SM BR SCT007 OVC015
     FM230000 33010KT 4SM -SHRA BR OVC006=



000
FTUS41 KBGM 220800 AAA
TAFSYR
TAF AMD
KSYR 220823Z 2208/2306 36005KT P6SM BKN025
      TEMPO 2208/2212 5SM BR SCT025 OVC035
     FM221200 35010KT P6SM SCT015 OVC025
     FM230000 35010KT P6SM -SHRA OVC015=



000
FTUS41 KBGM 220800 AAA
TAFELM
TAF AMD
KELM 220823Z 2208/2306 02010KT 6SM BR OVC006
      TEMPO 2208/2212 3SM BR SCT006 OVC015
     FM221200 34010KT P6SM OVC015
      TEMPO 2212/2216 OVC009
     FM230000 34010KT 6SM -SHRA BR SCT008 OVC015=



000
FTUS41 KBGM 220800 AAA
TAFBGM
TAF AMD
KBGM 220823Z 2208/2306 02007KT P6SM OVC006
      TEMPO 2208/2212 5SM -SHRA BR SCT006 OVC012
     FM221200 36010KT P6SM SCT006 OVC015
      TEMPO 2212/2216 BKN006 OVC015
     FM230000 34012KT 5SM -SHRA BR BKN006 OVC012=



000
FTUS41 KBGM 220800 AAA
TAFAVP
TAF AMD
KAVP 220823Z 2208/2306 05004KT 6SM BR OVC025
      TEMPO 2208/2212 4SM -SHRA BR SCT025 OVC035
     FM221200 02007KT P6SM SCT015 OVC025
      TEMPO 2212/2216 5SM -SHRA BR OVC015
     FM221600 36012KT 6SM -SHRA SCT015 OVC025
     FM230000 36012G18KT 5SM -SHRA OVC025=



000
FTUS41 KBGM 220500
TAFITH
TAF
KITH 220523Z 2206/2306 35005KT 3SM BR OVC004
      TEMPO 2210/2214 5SM BR SCT004 OVC012
     FM221400 33010KT 6SM BR SCT007 OVC015
     FM230000 33010KT 4SM -SHRA BR OVC006=



000
FTUS41 KBGM 220500
TAFBGM
TAF
KBGM 220523Z 2206/2306 02007KT P6SM OVC006
      TEMPO 2206/2210 5SM -SHRA BR SCT006 OVC012
     FM221200 36010KT P6SM SCT006 OVC015
      TEMPO 2212/2216 BKN006 OVC015
     FM230000 34012KT 5SM -SHRA BR BKN006 OVC012=



000
FTUS41 KBGM 220500
TAFAVP
TAF
KAVP 220523Z 2206/2306 05004KT 6SM BR OVC025
      TEMPO 2206/2210 4SM -SHRA BR SCT025 OVC035
     FM221000 02007KT P6SM SCT015 OVC025
      TEMPO 2210/2214 5SM -SHRA BR OVC015
     FM221400 36012KT 6SM -SHRA SCT015 OVC025
     FM230000 36012G18KT 5SM -SHRA OVC025=



000
FTUS41 KBGM 220500
TAFELM
TAF
KELM 220523Z 2206/2306 02010KT 6SM BR OVC006
      TEMPO 2208/2212 4SM BR SCT006 OVC015
     FM221200 34010KT P6SM OVC015
      TEMPO 2212/2216 OVC009
     FM230000 34010KT 6SM -SHRA BR SCT008 OVC015=



000
FTUS41 KBGM 220500
TAFSYR
TAF
KSYR 220523Z 2206/2306 36005KT P6SM SCT012 OVC025
      TEMPO 2206/2210 OVC012
     FM221000 36005KT 5SM BR OVC015
     FM221500 35010KT P6SM SCT015 OVC025
     FM230000 35010KT P6SM -SHRA OVC015=



000
FTUS41 KBGM 220500
TAFBGM
TAF
KBGM 220523Z 2206/2306 02007KT P6SM OVC006
      TEMPO 2206/2210 5SM -SHRA BR SCT006 OVC012
     FM221200 36010KT P6SM SCT006 OVC015
      TEMPO 2212/2216 BKN006 OVC015
     FM230000 34012KT 5SM -SHRA BR BKN006 OVC012=



000
FTUS41 KBGM 220500
TAFELM
TAF
KELM 220523Z 2206/2306 02010KT 6SM BR OVC006
      TEMPO 2208/2212 4SM BR SCT006 OVC015
     FM221200 34010KT P6SM OVC015
      TEMPO 2212/2216 OVC009
     FM230000 34010KT 6SM -SHRA BR SCT008 OVC015=



000
FTUS41 KBGM 220500
TAFAVP
TAF
KAVP 220523Z 2206/2306 05004KT 6SM BR OVC025
      TEMPO 2206/2210 4SM -SHRA BR SCT025 OVC035
     FM221000 02007KT P6SM SCT015 OVC025
      TEMPO 2210/2214 5SM -SHRA BR OVC015
     FM221400 36012KT 6SM -SHRA SCT015 OVC025
     FM230000 36012G18KT 5SM -SHRA OVC025=



000
FTUS41 KBGM 220500
TAFITH
TAF
KITH 220523Z 2206/2306 35005KT 3SM BR OVC004
      TEMPO 2210/2214 5SM BR SCT004 OVC012
     FM221400 33010KT 6SM BR SCT007 OVC015
     FM230000 33010KT 4SM -SHRA BR OVC006=



000
FTUS41 KBGM 220500
TAFSYR
TAF
KSYR 220523Z 2206/2306 36005KT P6SM SCT012 OVC025
      TEMPO 2206/2210 OVC012
     FM221000 36005KT 5SM BR OVC015
     FM221500 35010KT P6SM SCT015 OVC025
     FM230000 35010KT P6SM -SHRA OVC015=



000
FTUS41 KBGM 220400 AAA
TAFELM
TAF AMD
KELM 220413Z 2204/2224 02010KT 6SM BR SCT008 OVC015
      TEMPO 2204/2208 3SM BR OVC008
     FM221500 34008KT P6SM OVC018=



000
FTUS41 KBGM 220400 AAA
TAFELM
TAF AMD
KELM 220413Z 2204/2224 02010KT 6SM BR SCT008 OVC015
      TEMPO 2204/2208 3SM BR OVC008
     FM221500 34008KT P6SM OVC018=



000
FTUS41 KBGM 220300 AAB
TAFSYR
TAF AMD
KSYR 220304Z 2203/2224 02005KT P6SM SCT007 OVC020
      TEMPO 2203/2206 5SM -DZ OVC007
     FM221500 35010KT P6SM OVC025=



000
FTUS41 KBGM 220300 AAA
TAFBGM
TAF AMD
KBGM 220303Z 2203/2224 02007KT P6SM SCT005 OVC015
      TEMPO 2203/2207 OVC005
     FM221500 35010KT P6SM OVC015=



000
FTUS41 KBGM 220200 AAA
TAFSYR
TAF AMD
KSYR 220208Z 2202/2224 02005KT P6SM SCT005 OVC012
      TEMPO 2202/2205 5SM -DZ OVC005
     FM221500 35010KT P6SM OVC025=



000
FTUS41 KBGM 220200 AAA
TAFSYR
TAF AMD
KSYR 220208Z 2202/2224 02005KT P6SM SCT005 OVC012
      TEMPO 2202/2205 5SM -DZ OVC005
     FM221500 35010KT P6SM OVC025=



000
FTUS41 KBGM 212300 RRA
TAFITH
TAF
KITH 212341Z 2200/2224 35004KT P6SM SCT015 OVC025
      TEMPO 2200/2203 5SM -DZ BR OVC015
     FM220300 35005KT P6SM SCT008 OVC015
      TEMPO 2209/2213 4SM BR OVC008
     FM221500 33010KT P6SM OVC015=



000
FTUS41 KBGM 212300 RRA
TAFELM
TAF
KELM 212341Z 2200/2224 04003KT P6SM SCT025 OVC040
      TEMPO 2200/2203 6SM -DZ BR OVC025
     FM220300 02005KT P6SM SCT009 OVC015
      TEMPO 2209/2213 3SM BR OVC009
     FM221500 34008KT P6SM OVC018=



000
FTUS41 KBGM 212300 RRA
TAFAVP
TAF
KAVP 212341Z 2200/2224 05004KT P6SM -SHRA SCT025 OVC040
     FM220300 03004KT P6SM -SHRA OVC025
     FM220600 02004KT 4SM BR OVC015
     FM221500 35007KT P6SM OVC022=



000
FTUS41 KBGM 212300 RRA
TAFBGM
TAF
KBGM 212341Z 2200/2224 02004KT P6SM SCT015 OVC025
      TEMPO 2202/2204 5SM -DZ BR OVC015
     FM220400 02007KT P6SM SCT008 OVC015
      TEMPO 2209/2213 4SM BR OVC008
     FM221500 35010KT P6SM OVC015=



000
FTUS41 KBGM 212300 RRA
TAFSYR
TAF
KSYR 212341Z 2200/2224 04004KT P6SM SCT015 OVC028
      TEMPO 2200/2203 6SM -DZ OVC015
     FM221500 35010KT P6SM OVC028=



000
FTUS41 KBGM 212000 AAA
TAFELM
TAF AMD
KELM 212043Z 2121/2218 VRB03KT P6SM SCT018 OVC040
      TEMPO 2121/2124 -SHRA BKN018 OVC035
     FM220000 36004KT 6SM BR OVC015
     FM220600 01003KT 2SM BR OVC009
     FM221400 36005KT 4SM BR OVC012=



    US Dept of Commerce
    National Oceanic and Atmospheric Administration
    National Weather Service
    1325 East West Highway
    Silver Spring, MD 20910
    Page Author: NWS Internet Services Team
Disclaimer
Information Quality
Credits
Glossary
Privacy Policy
Freedom of Information Act (FOIA)
About Us
Career Opportunities